createdAt,value
2023-04-09T00:01:20.695Z,99189.59
2023-04-09T00:03:47.744Z,99195.08
2023-04-09T00:06:14.861Z,99194.49
2023-04-09T00:08:42.148Z,99195.67
2023-04-09T00:11:14.488Z,99194.77
2023-04-09T00:13:41.331Z,99191.77
2023-04-09T00:16:09.243Z,99196.26
2023-04-09T00:18:36.734Z,99196.90
2023-04-09T00:21:03.807Z,99192.34
2023-04-09T00:23:31.055Z,99192.61
2023-04-09T00:25:58.090Z,99192.10
2023-04-09T00:28:32.944Z,99187.47
2023-04-09T00:31:06.828Z,99185.97
2023-04-09T00:33:35.199Z,99183.50
2023-04-09T00:36:05.350Z,99182.08
2023-04-09T00:38:38.649Z,99177.96
2023-04-09T00:41:08.643Z,99173.59
2023-04-09T00:43:39.420Z,99171.40
2023-04-09T00:46:06.530Z,99174.41
2023-04-09T00:48:33.939Z,99176.17
2023-04-09T00:51:01.224Z,99177.20
2023-04-09T00:53:28.996Z,99172.69
2023-04-09T00:55:56.308Z,99171.43
2023-04-09T00:58:23.259Z,99172.70
2023-04-09T01:00:50.738Z,99174.07
2023-04-09T01:03:18.232Z,99180.56
2023-04-09T01:06:24.549Z,99175.84
2023-04-09T01:09:28.690Z,99179.12
2023-04-09T01:12:10.144Z,99188.09
2023-04-09T01:15:09.236Z,99187.36
2023-04-09T01:17:47.041Z,99188.30
2023-04-09T01:20:44.161Z,99190.14
2023-04-09T01:23:11.002Z,99190.92
2023-04-09T01:25:37.982Z,99195.03
2023-04-09T01:28:18.354Z,99195.13
2023-04-09T01:30:57.676Z,99201.25
2023-04-09T01:33:26.407Z,99201.48
2023-04-09T01:35:55.548Z,99205.00
2023-04-09T01:38:23.696Z,99202.69
2023-04-09T01:40:51.244Z,99201.17
2023-04-09T01:43:19.694Z,99200.48
2023-04-09T01:45:47.937Z,99201.27
2023-04-09T01:48:16.275Z,99197.83
2023-04-09T01:50:44.382Z,99198.13
2023-04-09T01:53:11.701Z,99199.21
2023-04-09T01:55:38.665Z,99197.94
2023-04-09T01:58:05.582Z,99197.14
2023-04-09T02:00:38.610Z,99196.98
2023-04-09T02:03:15.630Z,99192.80
2023-04-09T02:05:46.983Z,99193.91
2023-04-09T02:08:21.176Z,99192.33
2023-04-09T02:10:55.833Z,99192.27
2023-04-09T02:13:24.856Z,99195.39
2023-04-09T02:15:52.726Z,99196.61
2023-04-09T02:18:28.812Z,99199.73
2023-04-09T02:20:57.599Z,99194.04
2023-04-09T02:23:25.799Z,99198.21
2023-04-09T02:25:54.077Z,99197.78
2023-04-09T02:28:21.107Z,99194.47
2023-04-09T02:30:47.986Z,99193.79
2023-04-09T02:33:15.013Z,99194.45
2023-04-09T02:35:41.977Z,99193.77
2023-04-09T02:38:14.054Z,99193.32
2023-04-09T02:40:44.223Z,99192.54
2023-04-09T02:43:11.179Z,99190.48
2023-04-09T02:45:38.341Z,99191.73
2023-04-09T02:48:05.655Z,99193.39
2023-04-09T02:50:32.507Z,99190.77
2023-04-09T02:52:59.358Z,99191.15
2023-04-09T02:55:26.395Z,99192.54
2023-04-09T02:57:53.246Z,99198.05
2023-04-09T03:00:20.599Z,99195.80
2023-04-09T03:02:47.629Z,99197.65
2023-04-09T03:05:14.994Z,99197.07
2023-04-09T03:07:41.870Z,99199.13
2023-04-09T03:10:09.495Z,99196.48
2023-04-09T03:12:36.340Z,99197.40
2023-04-09T03:15:03.274Z,99197.14
2023-04-09T03:17:32.302Z,99196.85
2023-04-09T03:19:59.607Z,99199.25
2023-04-09T03:22:26.458Z,99197.90
2023-04-09T03:24:53.397Z,99195.02
2023-04-09T03:27:20.231Z,99196.46
2023-04-09T03:29:47.079Z,99200.44
2023-04-09T03:32:13.939Z,99201.76
2023-04-09T03:34:41.079Z,99197.65
2023-04-09T03:37:07.906Z,99194.55
2023-04-09T03:39:34.856Z,99196.69
2023-04-09T03:42:02.150Z,99194.19
2023-04-09T03:44:29.138Z,99195.77
2023-04-09T03:46:56.849Z,99192.73
2023-04-09T03:49:24.148Z,99196.77
2023-04-09T03:51:51.193Z,99195.73
2023-04-09T03:54:18.239Z,99201.23
2023-04-09T03:56:45.287Z,99201.08
2023-04-09T03:59:12.224Z,99203.86
2023-04-09T04:01:40.946Z,99204.17
2023-04-09T04:04:12.695Z,99204.98
2023-04-09T04:06:45.484Z,99205.20
2023-04-09T04:09:17.031Z,99206.02
2023-04-09T04:11:43.941Z,99210.05
2023-04-09T04:14:11.396Z,99211.31
2023-04-09T04:16:40.871Z,99210.13
2023-04-09T04:19:08.723Z,99209.63
2023-04-09T04:21:36.167Z,99211.98
2023-04-09T04:24:03.258Z,99209.80
2023-04-09T04:26:30.300Z,99213.90
2023-04-09T04:28:57.252Z,99211.35
2023-04-09T04:31:24.256Z,99211.49
2023-04-09T04:33:51.333Z,99210.78
2023-04-09T04:36:18.689Z,99211.61
2023-04-09T04:38:45.772Z,99213.54
2023-04-09T04:41:13.364Z,99214.93
2023-04-09T04:43:41.978Z,99211.32
2023-04-09T04:46:09.071Z,99212.96
2023-04-09T04:48:36.485Z,99214.23
2023-04-09T04:51:04.164Z,99222.20
2023-04-09T04:53:31.553Z,99223.91
2023-04-09T04:55:58.889Z,99220.52
2023-04-09T04:58:26.604Z,99227.15
2023-04-09T05:00:53.962Z,99230.14
2023-04-09T05:03:21.384Z,99231.10
2023-04-09T05:05:48.553Z,99232.29
2023-04-09T05:08:15.621Z,99235.05
2023-04-09T05:10:47.042Z,99238.82
2023-04-09T05:13:14.112Z,99242.09
2023-04-09T05:15:41.453Z,99244.27
2023-04-09T05:18:08.896Z,99252.33
2023-04-09T05:20:35.831Z,99251.80
2023-04-09T05:23:02.689Z,99251.30
2023-04-09T05:25:29.471Z,99251.02
2023-04-09T05:27:56.582Z,99252.48
2023-04-09T05:30:23.486Z,99250.84
2023-04-09T05:32:50.399Z,99250.42
2023-04-09T05:35:17.671Z,99249.58
2023-04-09T05:37:44.473Z,99252.42
2023-04-09T05:40:12.500Z,99254.52
2023-04-09T05:42:39.394Z,99255.10
2023-04-09T05:45:06.956Z,99258.28
2023-04-09T05:47:33.704Z,99261.54
2023-04-09T05:50:00.525Z,99260.47
2023-04-09T05:52:27.412Z,99257.59
2023-04-09T05:54:54.125Z,99258.70
2023-04-09T05:57:20.881Z,99262.20
2023-04-09T05:59:47.592Z,99259.00
2023-04-09T06:02:14.503Z,99254.98
2023-04-09T06:04:41.631Z,99260.60
2023-04-09T06:07:08.481Z,99259.63
2023-04-09T06:09:35.698Z,99262.73
2023-04-09T06:12:02.832Z,99262.09
2023-04-09T06:14:29.825Z,99262.78
2023-04-09T06:16:58.809Z,99266.84
2023-04-09T06:19:25.856Z,99267.43
2023-04-09T06:21:52.626Z,99265.81
2023-04-09T06:24:19.447Z,99265.66
2023-04-09T06:26:46.406Z,99266.36
2023-04-09T06:29:13.221Z,99268.77
2023-04-09T06:31:40.211Z,99270.48
2023-04-09T06:34:07.145Z,99266.05
2023-04-09T06:36:34.870Z,99268.35
2023-04-09T06:39:01.830Z,99273.09
2023-04-09T06:41:29.067Z,99273.89
2023-04-09T06:43:55.994Z,99273.94
2023-04-09T06:46:24.390Z,99276.21
2023-04-09T06:48:51.569Z,99278.64
2023-04-09T06:51:18.460Z,99277.52
2023-04-09T06:53:46.170Z,99281.21
2023-04-09T06:56:12.965Z,99284.02
2023-04-09T06:58:39.791Z,99282.69
2023-04-09T07:01:07.081Z,99288.95
2023-04-09T07:03:34.134Z,99289.14
2023-04-09T07:06:01.882Z,99289.70
2023-04-09T07:08:29.048Z,99292.14
2023-04-09T07:10:56.574Z,99289.55
2023-04-09T07:13:23.428Z,99290.00
2023-04-09T07:15:50.835Z,99287.46
2023-04-09T07:18:17.807Z,99289.45
2023-04-09T07:20:44.763Z,99289.70
2023-04-09T07:23:12.419Z,99283.04
2023-04-09T07:25:39.358Z,99287.23
2023-04-09T07:28:06.491Z,99285.88
2023-04-09T07:30:33.378Z,99286.23
2023-04-09T07:33:00.720Z,99285.95
2023-04-09T07:35:27.735Z,99287.30
2023-04-09T07:37:55.215Z,99285.41
2023-04-09T07:40:22.134Z,99285.24
2023-04-09T07:42:50.010Z,99284.33
2023-04-09T07:45:17.539Z,99284.83
2023-04-09T07:47:44.514Z,99283.46
2023-04-09T07:50:12.397Z,99284.62
2023-04-09T07:52:39.531Z,99288.20
2023-04-09T07:55:07.088Z,99289.88
2023-04-09T07:57:34.317Z,99291.47
2023-04-09T08:00:01.974Z,99298.77
2023-04-09T08:02:29.208Z,99298.38
2023-04-09T08:04:56.788Z,99302.20
2023-04-09T08:07:23.844Z,99299.31
2023-04-09T08:09:50.979Z,99299.95
2023-04-09T08:12:18.250Z,99297.63
2023-04-09T08:14:49.207Z,99300.50
2023-04-09T08:17:27.017Z,99298.27
2023-04-09T08:19:58.309Z,99296.24
2023-04-09T08:22:25.606Z,99297.66
2023-04-09T08:24:53.780Z,99299.80
2023-04-09T08:27:21.694Z,99298.77
2023-04-09T08:29:49.215Z,99299.58
2023-04-09T08:32:16.665Z,99300.55
2023-04-09T08:34:43.765Z,99300.84
2023-04-09T08:37:11.689Z,99298.85
2023-04-09T08:39:38.563Z,99301.01
2023-04-09T08:42:07.453Z,99302.17
2023-04-09T08:44:34.596Z,99303.65
2023-04-09T08:47:03.218Z,99306.38
2023-04-09T08:49:30.320Z,99306.48
2023-04-09T08:51:57.525Z,99310.14
2023-04-09T08:54:38.406Z,99309.30
2023-04-09T08:57:05.969Z,99308.77
2023-04-09T08:59:37.319Z,99311.05
2023-04-09T09:02:09.767Z,99311.25
2023-04-09T09:04:51.401Z,99307.54
2023-04-09T09:07:18.929Z,99311.20
2023-04-09T09:10:00.554Z,99308.86
2023-04-09T09:12:39.681Z,99306.10
2023-04-09T09:15:27.967Z,99305.62
2023-04-09T09:17:58.411Z,99306.23
2023-04-09T09:20:27.628Z,99308.69
2023-04-09T09:22:57.000Z,99307.30
2023-04-09T09:25:25.080Z,99308.75
2023-04-09T09:27:53.894Z,99307.61
2023-04-09T09:30:23.060Z,99307.20
2023-04-09T09:32:54.228Z,99306.69
2023-04-09T09:35:22.130Z,99306.08
2023-04-09T09:38:02.282Z,99304.88
2023-04-09T09:40:30.528Z,99304.67
2023-04-09T09:42:58.391Z,99303.66
2023-04-09T09:45:26.455Z,99305.23
2023-04-09T09:47:54.901Z,99309.33
2023-04-09T09:50:26.081Z,99306.54
2023-04-09T09:53:03.496Z,99306.36
2023-04-09T09:55:38.503Z,99300.86
2023-04-09T09:58:23.677Z,99302.15
2023-04-09T10:00:57.978Z,99302.41
2023-04-09T10:03:30.008Z,99303.23
2023-04-09T10:06:09.097Z,99303.70
2023-04-09T10:08:47.494Z,99302.92
2023-04-09T10:11:14.630Z,99299.36
2023-04-09T10:13:46.795Z,99293.61
2023-04-09T10:16:14.722Z,99295.98
2023-04-09T10:18:43.101Z,99294.83
2023-04-09T10:21:23.802Z,99299.77
2023-04-09T10:23:52.307Z,99292.14
2023-04-09T10:26:20.776Z,99291.27
2023-04-09T10:29:05.241Z,99292.54
2023-04-09T10:32:03.403Z,99285.94
2023-04-09T10:34:30.782Z,99285.79
2023-04-09T10:37:00.061Z,99281.75
2023-04-09T10:39:30.209Z,99281.35
2023-04-09T10:42:09.903Z,99281.42
2023-04-09T10:44:46.460Z,99275.52
2023-04-09T10:47:33.228Z,99275.89
2023-04-09T10:50:37.840Z,99279.83
2023-04-09T10:53:06.695Z,99277.36
2023-04-09T10:55:41.019Z,99277.61
2023-04-09T10:58:14.816Z,99273.10
2023-04-09T11:00:44.900Z,99271.84
2023-04-09T11:03:30.793Z,99269.14
2023-04-09T11:06:10.921Z,99267.59
2023-04-09T11:08:39.286Z,99266.17
2023-04-09T11:11:07.029Z,99267.42
2023-04-09T11:13:34.773Z,99269.86
2023-04-09T11:16:07.513Z,99271.03
2023-04-09T11:18:37.574Z,99269.69
2023-04-09T11:21:05.009Z,99269.87
2023-04-09T11:23:33.200Z,99268.44
2023-04-09T11:26:00.283Z,99266.92
2023-04-09T11:28:28.105Z,99271.02
2023-04-09T11:30:55.234Z,99269.80
2023-04-09T11:33:22.732Z,99267.73
2023-04-09T11:35:51.330Z,99267.36
2023-04-09T11:38:18.235Z,99265.64
2023-04-09T11:40:49.085Z,99263.86
2023-04-09T11:43:18.254Z,99261.70
2023-04-09T11:45:49.021Z,99263.56
2023-04-09T11:48:18.726Z,99260.72
2023-04-09T11:50:47.780Z,99259.76
2023-04-09T11:53:19.295Z,99260.28
2023-04-09T11:55:50.725Z,99261.10
2023-04-09T11:58:18.349Z,99262.77
2023-04-09T12:00:46.031Z,99258.66
2023-04-09T12:03:14.226Z,99259.52
2023-04-09T12:05:50.976Z,99262.08
2023-04-09T12:08:23.981Z,99263.70
2023-04-09T12:10:53.912Z,99262.41
2023-04-09T12:13:21.949Z,99261.40
2023-04-09T12:15:50.920Z,99264.73
2023-04-09T12:18:17.841Z,99258.74
2023-04-09T12:20:48.040Z,99261.27
2023-04-09T12:23:16.798Z,99264.34
2023-04-09T12:25:45.711Z,99265.21
2023-04-09T12:28:18.798Z,99266.48
2023-04-09T12:30:46.997Z,99263.73
2023-04-09T12:33:13.839Z,99260.25
2023-04-09T12:35:41.178Z,99259.16
2023-04-09T12:38:08.478Z,99255.63
2023-04-09T12:40:37.208Z,99255.00
2023-04-09T12:43:04.516Z,99255.81
2023-04-09T12:45:32.488Z,99254.30
2023-04-09T12:47:59.598Z,99257.73
2023-04-09T12:50:27.066Z,99254.06
2023-04-09T12:52:54.082Z,99249.59
2023-04-09T12:55:22.378Z,99252.00
2023-04-09T12:57:50.746Z,99251.95
2023-04-09T13:00:18.202Z,99251.54
2023-04-09T13:02:45.964Z,99248.23
2023-04-09T13:05:13.577Z,99248.83
2023-04-09T13:07:42.856Z,99248.45
2023-04-09T13:10:11.261Z,99246.48
2023-04-09T13:12:38.139Z,99247.73
2023-04-09T13:15:06.097Z,99244.57
2023-04-09T13:17:33.127Z,99240.01
2023-04-09T13:20:00.061Z,99240.61
2023-04-09T13:22:27.029Z,99241.65
2023-04-09T13:24:53.977Z,99242.04
2023-04-09T13:27:21.502Z,99239.64
2023-04-09T13:29:48.621Z,99243.55
2023-04-09T13:32:16.074Z,99242.13
2023-04-09T13:34:43.099Z,99241.22
2023-04-09T13:37:10.139Z,99238.67
2023-04-09T13:39:37.347Z,99239.05
2023-04-09T13:42:12.586Z,99237.84
2023-04-09T13:44:42.692Z,99243.74
2023-04-09T13:47:11.483Z,99248.40
2023-04-09T13:49:38.789Z,99245.60
2023-04-09T13:52:06.475Z,99247.08
2023-04-09T13:54:34.938Z,99244.86
2023-04-09T13:57:02.704Z,99244.95
2023-04-09T13:59:30.032Z,99244.79
2023-04-09T14:01:57.053Z,99241.86
2023-04-09T14:04:24.797Z,99246.15
2023-04-09T14:06:51.899Z,99241.42
2023-04-09T14:09:18.949Z,99247.40
2023-04-09T14:11:45.948Z,99245.72
2023-04-09T14:14:12.810Z,99240.33
2023-04-09T14:16:39.739Z,99241.02
2023-04-09T14:19:06.855Z,99242.64
2023-04-09T14:21:34.462Z,99237.16
2023-04-09T14:24:02.379Z,99236.16
2023-04-09T14:26:29.743Z,99235.95
2023-04-09T14:28:56.802Z,99231.48
2023-04-09T14:31:23.848Z,99230.98
2023-04-09T14:33:51.256Z,99229.75
2023-04-09T14:36:18.620Z,99224.29
2023-04-09T14:38:46.374Z,99221.73
2023-04-09T14:41:13.364Z,99219.88
2023-04-09T14:43:40.205Z,99220.55
2023-04-09T14:46:12.008Z,99216.11
2023-04-09T14:48:40.654Z,99213.54
2023-04-09T14:51:11.344Z,99216.64
2023-04-09T14:53:38.896Z,99213.73
2023-04-09T14:56:06.968Z,99208.95
2023-04-09T14:58:34.264Z,99204.42
2023-04-09T15:01:01.623Z,99208.31
2023-04-09T15:03:28.863Z,99207.19
2023-04-09T15:05:56.421Z,99205.88
2023-04-09T15:08:24.098Z,99207.71
2023-04-09T15:10:51.556Z,99209.73
2023-04-09T15:13:18.682Z,99210.41
2023-04-09T15:15:46.332Z,99211.57
2023-04-09T15:18:13.285Z,99212.45
2023-04-09T15:20:41.099Z,99210.31
2023-04-09T15:23:07.990Z,99211.80
2023-04-09T15:25:35.583Z,99214.52
2023-04-09T15:28:03.504Z,99211.62
2023-04-09T15:30:31.286Z,99216.92
2023-04-09T15:32:58.647Z,99213.91
2023-04-09T15:35:29.998Z,99214.82
2023-04-09T15:37:57.646Z,99213.62
2023-04-09T15:40:24.798Z,99213.40
2023-04-09T15:42:51.855Z,99214.42
2023-04-09T15:45:18.883Z,99218.59
2023-04-09T15:47:46.852Z,99217.13
2023-04-09T15:50:26.276Z,99219.46
2023-04-09T15:52:53.823Z,99225.06
2023-04-09T15:55:20.901Z,99228.21
2023-04-09T15:57:48.049Z,99228.63
2023-04-09T16:00:15.744Z,99228.45
2023-04-09T16:02:42.634Z,99228.55
2023-04-09T16:05:10.133Z,99226.89
2023-04-09T16:07:37.222Z,99229.56
2023-04-09T16:10:05.088Z,99228.14
2023-04-09T16:12:32.323Z,99234.73
2023-04-09T16:14:59.654Z,99238.20
2023-04-09T16:17:26.942Z,99240.57
2023-04-09T16:19:53.787Z,99236.86
2023-04-09T16:22:25.492Z,99238.59
2023-04-09T16:25:03.382Z,99239.58
2023-04-09T16:27:50.799Z,99241.77
2023-04-09T16:30:26.622Z,99243.68
2023-04-09T16:32:53.722Z,99241.42
2023-04-09T16:35:21.118Z,99242.59
2023-04-09T16:37:48.254Z,99242.02
2023-04-09T16:40:15.769Z,99251.36
2023-04-09T16:42:43.117Z,99249.94
2023-04-09T16:45:11.444Z,99250.72
2023-04-09T16:47:38.737Z,99254.15
2023-04-09T16:50:10.700Z,99252.29
2023-04-09T16:52:39.291Z,99252.73
2023-04-09T16:55:08.364Z,99255.23
2023-04-09T16:57:36.031Z,99252.59
2023-04-09T17:00:05.595Z,99252.42
2023-04-09T17:02:34.167Z,99253.35
2023-04-09T17:05:01.221Z,99255.61
2023-04-09T17:07:28.953Z,99259.45
2023-04-09T17:09:56.843Z,99261.84
2023-04-09T17:12:25.188Z,99263.92
2023-04-09T17:14:52.308Z,99264.16
2023-04-09T17:17:19.674Z,99263.36
2023-04-09T17:19:47.032Z,99264.94
2023-04-09T17:22:14.422Z,99267.95
2023-04-09T17:24:41.214Z,99266.35
2023-04-09T17:27:08.817Z,99274.02
2023-04-09T17:29:36.553Z,99276.15
2023-04-09T17:32:03.627Z,99279.02
2023-04-09T17:34:30.729Z,99279.84
2023-04-09T17:37:00.554Z,99282.09
2023-04-09T17:39:30.090Z,99283.48
2023-04-09T17:41:58.680Z,99287.10
2023-04-09T17:44:25.623Z,99289.48
2023-04-09T17:46:52.654Z,99296.27
2023-04-09T17:49:19.760Z,99294.18
2023-04-09T17:51:46.722Z,99295.45
2023-04-09T17:54:14.151Z,99303.75
2023-04-09T17:56:41.030Z,99300.80
2023-04-09T17:59:08.212Z,99305.33
2023-04-09T18:01:37.246Z,99307.91
2023-04-09T18:04:04.747Z,99311.06
2023-04-09T18:06:32.231Z,99313.84
2023-04-09T18:08:59.135Z,99315.02
2023-04-09T18:11:26.487Z,99318.58
2023-04-09T18:13:53.355Z,99319.92
2023-04-09T18:16:23.561Z,99324.20
2023-04-09T18:18:50.771Z,99325.21
2023-04-09T18:21:18.471Z,99334.91
2023-04-09T18:23:53.005Z,99334.34
2023-04-09T18:26:19.917Z,99335.83
2023-04-09T18:28:46.965Z,99337.16
2023-04-09T18:31:14.008Z,99334.29
2023-04-09T18:33:41.356Z,99339.71
2023-04-09T18:36:08.469Z,99340.00
2023-04-09T18:38:37.265Z,99340.98
2023-04-09T18:41:04.696Z,99345.20
2023-04-09T18:43:31.696Z,99347.63
2023-04-09T18:45:58.778Z,99349.91
2023-04-09T18:48:26.302Z,99354.10
2023-04-09T18:50:53.502Z,99352.52
2023-04-09T18:53:20.625Z,99357.73
2023-04-09T18:55:47.641Z,99354.90
2023-04-09T18:58:16.141Z,99357.85
2023-04-09T19:00:44.100Z,99360.31
2023-04-09T19:03:11.502Z,99363.72
2023-04-09T19:05:39.186Z,99364.27
2023-04-09T19:08:07.186Z,99364.66
2023-04-09T19:10:34.074Z,99362.55
2023-04-09T19:13:00.962Z,99358.88
2023-04-09T19:15:29.667Z,99359.88
2023-04-09T19:17:57.287Z,99358.30
2023-04-09T19:20:24.251Z,99362.91
2023-04-09T19:22:54.644Z,99366.85
2023-04-09T19:25:23.134Z,99361.34
2023-04-09T19:27:50.247Z,99369.15
2023-04-09T19:30:31.074Z,99369.04
2023-04-09T19:32:57.870Z,99367.57
2023-04-09T19:35:24.828Z,99367.79
2023-04-09T19:37:52.310Z,99371.23
2023-04-09T19:40:19.081Z,99367.84
2023-04-09T19:42:46.049Z,99370.36
2023-04-09T19:45:12.963Z,99369.70
2023-04-09T19:47:39.757Z,99366.48
2023-04-09T19:50:07.412Z,99368.30
2023-04-09T19:52:34.308Z,99371.23
2023-04-09T19:55:02.167Z,99371.06
2023-04-09T19:57:29.142Z,99369.86
2023-04-09T19:59:55.910Z,99371.11
2023-04-09T20:02:24.099Z,99368.66
2023-04-09T20:04:52.712Z,99373.19
2023-04-09T20:07:19.838Z,99375.85
2023-04-09T20:09:47.451Z,99376.02
2023-04-09T20:12:14.492Z,99379.88
2023-04-09T20:14:41.543Z,99377.48
2023-04-09T20:17:10.282Z,99381.88
2023-04-09T20:19:38.309Z,99383.34
2023-04-09T20:22:05.765Z,99383.67
2023-04-09T20:24:34.225Z,99384.47
2023-04-09T20:27:02.225Z,99384.19
2023-04-09T20:29:34.659Z,99386.04
2023-04-09T20:32:13.141Z,99388.52
2023-04-09T20:34:46.194Z,99389.23
2023-04-09T20:37:22.303Z,99388.59
2023-04-09T20:40:02.434Z,99386.89
2023-04-09T20:42:41.945Z,99386.90
2023-04-09T20:45:16.702Z,99387.89
2023-04-09T20:47:46.412Z,99393.84
2023-04-09T20:50:20.814Z,99391.83
2023-04-09T20:52:49.713Z,99387.00
2023-04-09T20:55:22.307Z,99387.64
2023-04-09T20:57:58.564Z,99390.30
2023-04-09T21:00:25.716Z,99388.20
2023-04-09T21:02:52.740Z,99389.66
2023-04-09T21:05:23.910Z,99387.71
2023-04-09T21:07:53.111Z,99387.69
2023-04-09T21:10:20.193Z,99389.60
2023-04-09T21:12:47.071Z,99390.63
2023-04-09T21:15:14.016Z,99392.37
2023-04-09T21:17:41.152Z,99395.60
2023-04-09T21:20:09.203Z,99396.56
2023-04-09T21:22:36.142Z,99396.46
2023-04-09T21:25:03.776Z,99399.09
2023-04-09T21:27:31.495Z,99399.04
2023-04-09T21:30:01.798Z,99396.86
2023-04-09T21:32:29.027Z,99398.02
2023-04-09T21:34:56.095Z,99395.52
2023-04-09T21:37:24.893Z,99394.31
2023-04-09T21:39:51.711Z,99397.96
2023-04-09T21:42:18.500Z,99392.90
2023-04-09T21:44:45.506Z,99394.73
2023-04-09T21:47:12.448Z,99402.37
2023-04-09T21:49:40.098Z,99400.55
2023-04-09T21:52:14.687Z,99405.16
2023-04-09T21:54:42.710Z,99403.89
2023-04-09T21:57:10.889Z,99400.79
2023-04-09T21:59:38.418Z,99406.23
2023-04-09T22:02:06.206Z,99407.01
2023-04-09T22:04:35.357Z,99405.17
2023-04-09T22:07:03.061Z,99403.16
2023-04-09T22:09:31.882Z,99402.52
2023-04-09T22:12:00.013Z,99405.78
2023-04-09T22:14:29.899Z,99406.95
2023-04-09T22:16:58.572Z,99406.08
2023-04-09T22:19:26.563Z,99405.70
2023-04-09T22:21:53.787Z,99405.04
2023-04-09T22:24:27.167Z,99407.86
2023-04-09T22:26:54.208Z,99405.90
2023-04-09T22:29:21.071Z,99403.97
2023-04-09T22:31:47.941Z,99406.34
2023-04-09T22:34:21.304Z,99405.39
2023-04-09T22:36:49.147Z,99402.49
2023-04-09T22:39:16.118Z,99401.45
2023-04-09T22:41:43.328Z,99405.20
2023-04-09T22:44:10.391Z,99403.23
2023-04-09T22:46:37.681Z,99404.83
2023-04-09T22:49:06.047Z,99406.45
2023-04-09T22:51:34.998Z,99409.23
2023-04-09T22:54:02.438Z,99409.48
2023-04-09T22:56:32.067Z,99407.04
2023-04-09T22:58:59.214Z,99413.20
2023-04-09T23:01:27.398Z,99408.75
2023-04-09T23:03:54.965Z,99410.05
2023-04-09T23:06:22.935Z,99410.00
2023-04-09T23:08:49.959Z,99406.02
2023-04-09T23:11:16.797Z,99407.33
2023-04-09T23:13:43.716Z,99405.03
2023-04-09T23:16:11.319Z,99404.27
2023-04-09T23:18:38.220Z,99402.31
2023-04-09T23:21:09.289Z,99403.69
2023-04-09T23:23:36.570Z,99398.73
2023-04-09T23:26:04.392Z,99397.61
2023-04-09T23:28:31.890Z,99395.20
2023-04-09T23:30:59.108Z,99394.34
2023-04-09T23:33:26.321Z,99393.88
2023-04-09T23:35:53.420Z,99393.06
2023-04-09T23:38:20.870Z,99387.41
2023-04-09T23:40:49.395Z,99385.19
2023-04-09T23:43:17.120Z,99384.41
2023-04-09T23:45:44.879Z,99380.05
2023-04-09T23:48:12.944Z,99380.96
2023-04-09T23:50:41.372Z,99375.40
2023-04-09T23:53:08.647Z,99379.80
2023-04-09T23:55:38.879Z,99379.58
2023-04-09T23:58:05.908Z,99381.13
